sensor_id;sensor_type;location;lat;lon;timestamp;temperature;humidity
30037;DHT22;36325;51.512;-0.382;2022-10-28T00:01:18;16.10;99.90
30037;DHT22;36325;51.512;-0.382;2022-10-28T00:03:54;16.10;99.90
30037;DHT22;36325;51.512;-0.382;2022-10-28T00:06:24;16.10;99.90
30037;DHT22;36325;51.512;-0.382;2022-10-28T00:08:52;16.10;99.90
30037;DHT22;36325;51.512;-0.382;2022-10-28T00:11:22;16.10;99.90
30037;DHT22;36325;51.512;-0.382;2022-10-28T00:13:52;16.10;99.90
30037;DHT22;36325;51.512;-0.382;2022-10-28T00:16:23;16.10;99.90
30037;DHT22;36325;51.512;-0.382;2022-10-28T00:18:51;16.00;99.90
30037;DHT22;36325;51.512;-0.382;2022-10-28T00:21:24;16.00;99.90
30037;DHT22;36325;51.512;-0.382;2022-10-28T00:23:52;16.00;99.90
30037;DHT22;36325;51.512;-0.382;2022-10-28T00:26:25;16.00;99.90
30037;DHT22;36325;51.512;-0.382;2022-10-28T00:29:07;16.00;99.90
30037;DHT22;36325;51.512;-0.382;2022-10-28T00:31:36;16.00;99.90
30037;DHT22;36325;51.512;-0.382;2022-10-28T00:34:09;16.00;99.90
30037;DHT22;36325;51.512;-0.382;2022-10-28T00:36:39;16.00;99.90
30037;DHT22;36325;51.512;-0.382;2022-10-28T00:39:17;15.90;99.90
30037;DHT22;36325;51.512;-0.382;2022-10-28T00:41:48;15.90;99.90
30037;DHT22;36325;51.512;-0.382;2022-10-28T00:50:40;15.80;99.90
30037;DHT22;36325;51.512;-0.382;2022-10-28T00:53:13;15.70;99.90
30037;DHT22;36325;51.512;-0.382;2022-10-28T00:55:42;15.60;99.90
30037;DHT22;36325;51.512;-0.382;2022-10-28T00:58:10;15.60;99.90
30037;DHT22;36325;51.512;-0.382;2022-10-28T01:00:38;15.60;99.90
30037;DHT22;36325;51.512;-0.382;2022-10-28T01:03:05;17.30;99.90
30037;DHT22;36325;51.512;-0.382;2022-10-28T01:05:35;15.60;99.90
30037;DHT22;36325;51.512;-0.382;2022-10-28T01:08:06;15.60;99.90
30037;DHT22;36325;51.512;-0.382;2022-10-28T01:11:01;15.60;99.90
30037;DHT22;36325;51.512;-0.382;2022-10-28T01:22:24;15.50;99.90
30037;DHT22;36325;51.512;-0.382;2022-10-28T01:31:16;15.60;99.90
30037;DHT22;36325;51.512;-0.382;2022-10-28T01:33:57;15.50;99.90
30037;DHT22;36325;51.512;-0.382;2022-10-28T01:39:25;15.50;99.90
30037;DHT22;36325;51.512;-0.382;2022-10-28T01:47:31;15.60;99.90
30037;DHT22;36325;51.512;-0.382;2022-10-28T01:50:22;15.60;99.90
30037;DHT22;36325;51.512;-0.382;2022-10-28T01:52:53;15.70;99.90
30037;DHT22;36325;51.512;-0.382;2022-10-28T01:55:26;15.70;99.90
30037;DHT22;36325;51.512;-0.382;2022-10-28T01:57:56;15.70;99.90
30037;DHT22;36325;51.512;-0.382;2022-10-28T02:00:24;15.80;99.90
30037;DHT22;36325;51.512;-0.382;2022-10-28T02:02:52;15.70;99.90
30037;DHT22;36325;51.512;-0.382;2022-10-28T02:05:38;15.80;99.90
30037;DHT22;36325;51.512;-0.382;2022-10-28T02:16:42;15.80;99.90
30037;DHT22;36325;51.512;-0.382;2022-10-28T02:25:07;15.80;99.90
30037;DHT22;36325;51.512;-0.382;2022-10-28T02:27:59;15.80;99.90
30037;DHT22;36325;51.512;-0.382;2022-10-28T02:30:54;15.80;99.90
30037;DHT22;36325;51.512;-0.382;2022-10-28T02:33:31;15.80;99.90
30037;DHT22;36325;51.512;-0.382;2022-10-28T02:36:08;15.80;99.90
30037;DHT22;36325;51.512;-0.382;2022-10-28T02:38:44;15.80;99.90
30037;DHT22;36325;51.512;-0.382;2022-10-28T02:41:19;15.90;99.90
30037;DHT22;36325;51.512;-0.382;2022-10-28T02:43:51;15.90;99.90
30037;DHT22;36325;51.512;-0.382;2022-10-28T02:46:20;15.90;99.90
30037;DHT22;36325;51.512;-0.382;2022-10-28T02:48:52;15.90;99.90
30037;DHT22;36325;51.512;-0.382;2022-10-28T02:51:22;15.80;99.90
30037;DHT22;36325;51.512;-0.382;2022-10-28T02:56:34;15.80;99.90
30037;DHT22;36325;51.512;-0.382;2022-10-28T02:59:03;15.80;99.90
30037;DHT22;36325;51.512;-0.382;2022-10-28T03:01:34;15.80;99.90
30037;DHT22;36325;51.512;-0.382;2022-10-28T03:04:01;15.80;99.90
30037;DHT22;36325;51.512;-0.382;2022-10-28T03:06:29;15.80;99.90
30037;DHT22;36325;51.512;-0.382;2022-10-28T03:08:56;15.80;99.90
30037;DHT22;36325;51.512;-0.382;2022-10-28T03:11:23;15.80;99.90
30037;DHT22;36325;51.512;-0.382;2022-10-28T03:13:50;15.80;99.90
30037;DHT22;36325;51.512;-0.382;2022-10-28T03:16:18;15.70;99.90
30037;DHT22;36325;51.512;-0.382;2022-10-28T03:18:45;15.70;99.90
30037;DHT22;36325;51.512;-0.382;2022-10-28T03:21:12;15.70;99.90
30037;DHT22;36325;51.512;-0.382;2022-10-28T03:23:39;15.70;99.90
30037;DHT22;36325;51.512;-0.382;2022-10-28T03:26:07;15.70;99.90
30037;DHT22;36325;51.512;-0.382;2022-10-28T03:28:34;15.70;99.90
30037;DHT22;36325;51.512;-0.382;2022-10-28T03:31:01;15.80;99.90
30037;DHT22;36325;51.512;-0.382;2022-10-28T03:33:28;15.70;99.90
30037;DHT22;36325;51.512;-0.382;2022-10-28T03:35:55;15.70;99.90
30037;DHT22;36325;51.512;-0.382;2022-10-28T03:38:23;15.70;99.90
30037;DHT22;36325;51.512;-0.382;2022-10-28T03:40:50;15.70;99.90
30037;DHT22;36325;51.512;-0.382;2022-10-28T03:43:17;15.70;99.90
30037;DHT22;36325;51.512;-0.382;2022-10-28T03:45:46;15.70;99.90
30037;DHT22;36325;51.512;-0.382;2022-10-28T03:48:13;15.60;99.90
30037;DHT22;36325;51.512;-0.382;2022-10-28T03:50:41;15.60;99.90
30037;DHT22;36325;51.512;-0.382;2022-10-28T03:53:08;15.60;99.90
30037;DHT22;36325;51.512;-0.382;2022-10-28T03:55:35;15.60;99.90
30037;DHT22;36325;51.512;-0.382;2022-10-28T03:58:02;15.60;99.90
30037;DHT22;36325;51.512;-0.382;2022-10-28T04:00:29;15.60;99.90
30037;DHT22;36325;51.512;-0.382;2022-10-28T04:03:02;15.60;99.90
30037;DHT22;36325;51.512;-0.382;2022-10-28T04:05:36;15.60;99.90
30037;DHT22;36325;51.512;-0.382;2022-10-28T04:08:03;15.60;99.90
30037;DHT22;36325;51.512;-0.382;2022-10-28T04:10:30;15.60;99.90
30037;DHT22;36325;51.512;-0.382;2022-10-28T04:13:01;15.60;99.90
30037;DHT22;36325;51.512;-0.382;2022-10-28T04:15:29;15.50;99.90
30037;DHT22;36325;51.512;-0.382;2022-10-28T04:17:56;15.40;99.90
30037;DHT22;36325;51.512;-0.382;2022-10-28T04:20:38;15.40;99.90
30037;DHT22;36325;51.512;-0.382;2022-10-28T04:23:16;15.40;99.90
30037;DHT22;36325;51.512;-0.382;2022-10-28T04:25:55;15.40;99.90
30037;DHT22;36325;51.512;-0.382;2022-10-28T04:28:22;15.40;99.90
30037;DHT22;36325;51.512;-0.382;2022-10-28T04:30:52;15.30;99.90
30037;DHT22;36325;51.512;-0.382;2022-10-28T04:33:19;15.30;99.90
30037;DHT22;36325;51.512;-0.382;2022-10-28T04:35:46;15.30;99.90
30037;DHT22;36325;51.512;-0.382;2022-10-28T04:38:13;15.30;99.90
30037;DHT22;36325;51.512;-0.382;2022-10-28T04:40:41;15.30;99.90
30037;DHT22;36325;51.512;-0.382;2022-10-28T04:43:08;15.30;99.90
30037;DHT22;36325;51.512;-0.382;2022-10-28T04:45:37;15.30;99.90
30037;DHT22;36325;51.512;-0.382;2022-10-28T04:48:05;15.40;99.90
30037;DHT22;36325;51.512;-0.382;2022-10-28T04:50:32;15.40;99.90
30037;DHT22;36325;51.512;-0.382;2022-10-28T04:53:09;15.40;99.90
30037;DHT22;36325;51.512;-0.382;2022-10-28T04:55:36;15.40;99.90
30037;DHT22;36325;51.512;-0.382;2022-10-28T04:58:03;15.50;99.90
30037;DHT22;36325;51.512;-0.382;2022-10-28T05:00:31;15.50;99.90
30037;DHT22;36325;51.512;-0.382;2022-10-28T05:03:00;15.50;99.90
30037;DHT22;36325;51.512;-0.382;2022-10-28T05:05:28;15.60;99.90
30037;DHT22;36325;51.512;-0.382;2022-10-28T05:07:57;15.60;99.90
30037;DHT22;36325;51.512;-0.382;2022-10-28T05:10:24;15.60;99.90
30037;DHT22;36325;51.512;-0.382;2022-10-28T05:12:51;15.70;99.90
30037;DHT22;36325;51.512;-0.382;2022-10-28T05:15:19;15.70;99.90
30037;DHT22;36325;51.512;-0.382;2022-10-28T05:17:46;15.80;99.90
30037;DHT22;36325;51.512;-0.382;2022-10-28T05:20:16;15.80;99.90
30037;DHT22;36325;51.512;-0.382;2022-10-28T05:22:50;15.90;99.90
30037;DHT22;36325;51.512;-0.382;2022-10-28T05:25:23;16.00;99.90
30037;DHT22;36325;51.512;-0.382;2022-10-28T05:27:50;16.00;99.90
30037;DHT22;36325;51.512;-0.382;2022-10-28T05:30:18;16.10;99.90
30037;DHT22;36325;51.512;-0.382;2022-10-28T05:32:45;16.20;99.90
30037;DHT22;36325;51.512;-0.382;2022-10-28T05:35:14;16.20;99.90
30037;DHT22;36325;51.512;-0.382;2022-10-28T05:37:42;16.20;99.90
30037;DHT22;36325;51.512;-0.382;2022-10-28T05:40:10;16.20;99.90
30037;DHT22;36325;51.512;-0.382;2022-10-28T05:42:41;16.20;99.90
30037;DHT22;36325;51.512;-0.382;2022-10-28T05:45:11;16.20;99.90
30037;DHT22;36325;51.512;-0.382;2022-10-28T05:47:46;16.30;99.90
30037;DHT22;36325;51.512;-0.382;2022-10-28T05:50:16;16.30;99.90
30037;DHT22;36325;51.512;-0.382;2022-10-28T05:52:45;16.40;99.90
30037;DHT22;36325;51.512;-0.382;2022-10-28T05:55:13;16.40;99.90
30037;DHT22;36325;51.512;-0.382;2022-10-28T05:57:40;16.40;99.90
30037;DHT22;36325;51.512;-0.382;2022-10-28T06:00:08;16.40;99.90
30037;DHT22;36325;51.512;-0.382;2022-10-28T06:02:39;16.40;99.90
30037;DHT22;36325;51.512;-0.382;2022-10-28T06:05:10;16.40;99.90
30037;DHT22;36325;51.512;-0.382;2022-10-28T06:07:39;16.40;99.90
30037;DHT22;36325;51.512;-0.382;2022-10-28T06:10:08;16.40;99.90
30037;DHT22;36325;51.512;-0.382;2022-10-28T06:12:36;16.50;99.90
30037;DHT22;36325;51.512;-0.382;2022-10-28T06:15:03;16.50;99.90
30037;DHT22;36325;51.512;-0.382;2022-10-28T06:17:31;16.50;99.90
30037;DHT22;36325;51.512;-0.382;2022-10-28T06:19:58;16.50;99.90
30037;DHT22;36325;51.512;-0.382;2022-10-28T06:22:25;16.60;99.90
30037;DHT22;36325;51.512;-0.382;2022-10-28T06:24:52;16.60;99.90
30037;DHT22;36325;51.512;-0.382;2022-10-28T06:27:20;16.60;99.90
30037;DHT22;36325;51.512;-0.382;2022-10-28T06:29:48;16.60;99.90
30037;DHT22;36325;51.512;-0.382;2022-10-28T06:32:15;16.70;99.90
30037;DHT22;36325;51.512;-0.382;2022-10-28T06:34:42;16.70;99.90
30037;DHT22;36325;51.512;-0.382;2022-10-28T06:37:09;16.70;99.90
30037;DHT22;36325;51.512;-0.382;2022-10-28T06:39:36;16.70;99.90
30037;DHT22;36325;51.512;-0.382;2022-10-28T06:42:06;16.70;99.90
30037;DHT22;36325;51.512;-0.382;2022-10-28T06:44:34;16.80;99.90
30037;DHT22;36325;51.512;-0.382;2022-10-28T06:47:01;16.80;99.90
30037;DHT22;36325;51.512;-0.382;2022-10-28T06:49:29;16.80;99.90
30037;DHT22;36325;51.512;-0.382;2022-10-28T06:51:57;16.30;99.90
30037;DHT22;36325;51.512;-0.382;2022-10-28T06:54:24;16.80;99.90
30037;DHT22;36325;51.512;-0.382;2022-10-28T06:56:51;16.80;99.90
30037;DHT22;36325;51.512;-0.382;2022-10-28T06:59:19;16.80;99.90
30037;DHT22;36325;51.512;-0.382;2022-10-28T07:01:46;16.70;99.90
30037;DHT22;36325;51.512;-0.382;2022-10-28T07:04:15;16.80;99.90
30037;DHT22;36325;51.512;-0.382;2022-10-28T07:06:44;16.70;99.90
30037;DHT22;36325;51.512;-0.382;2022-10-28T07:09:14;16.70;99.90
30037;DHT22;36325;51.512;-0.382;2022-10-28T07:11:41;16.80;99.90
30037;DHT22;36325;51.512;-0.382;2022-10-28T07:14:11;16.80;99.90
30037;DHT22;36325;51.512;-0.382;2022-10-28T07:16:38;16.80;99.90
30037;DHT22;36325;51.512;-0.382;2022-10-28T07:19:08;16.80;99.90
30037;DHT22;36325;51.512;-0.382;2022-10-28T07:21:35;16.90;99.90
30037;DHT22;36325;51.512;-0.382;2022-10-28T07:24:02;16.90;99.90
30037;DHT22;36325;51.512;-0.382;2022-10-28T07:26:30;16.90;99.90
30037;DHT22;36325;51.512;-0.382;2022-10-28T07:28:57;17.00;99.90
30037;DHT22;36325;51.512;-0.382;2022-10-28T07:31:24;17.00;99.90
30037;DHT22;36325;51.512;-0.382;2022-10-28T07:33:53;17.10;99.90
30037;DHT22;36325;51.512;-0.382;2022-10-28T07:36:21;17.20;99.90
30037;DHT22;36325;51.512;-0.382;2022-10-28T07:38:49;17.20;99.90
30037;DHT22;36325;51.512;-0.382;2022-10-28T07:41:19;17.30;99.90
30037;DHT22;36325;51.512;-0.382;2022-10-28T07:43:48;17.30;99.90
30037;DHT22;36325;51.512;-0.382;2022-10-28T07:46:18;17.40;99.90
30037;DHT22;36325;51.512;-0.382;2022-10-28T07:48:45;17.50;99.90
30037;DHT22;36325;51.512;-0.382;2022-10-28T07:51:14;17.50;99.90
30037;DHT22;36325;51.512;-0.382;2022-10-28T07:53:42;17.60;99.90
30037;DHT22;36325;51.512;-0.382;2022-10-28T07:56:11;17.60;99.90
30037;DHT22;36325;51.512;-0.382;2022-10-28T07:58:43;17.70;99.90
30037;DHT22;36325;51.512;-0.382;2022-10-28T08:01:15;17.80;99.90
30037;DHT22;36325;51.512;-0.382;2022-10-28T08:03:43;17.90;99.90
30037;DHT22;36325;51.512;-0.382;2022-10-28T08:06:13;18.00;99.90
30037;DHT22;36325;51.512;-0.382;2022-10-28T08:08:44;18.00;99.90
30037;DHT22;36325;51.512;-0.382;2022-10-28T08:11:14;18.00;99.90
30037;DHT22;36325;51.512;-0.382;2022-10-28T08:13:42;17.90;99.90
30037;DHT22;36325;51.512;-0.382;2022-10-28T08:16:09;17.90;99.90
30037;DHT22;36325;51.512;-0.382;2022-10-28T08:18:38;17.90;99.90
30037;DHT22;36325;51.512;-0.382;2022-10-28T08:21:07;17.90;99.90
30037;DHT22;36325;51.512;-0.382;2022-10-28T08:23:35;17.90;99.90
30037;DHT22;36325;51.512;-0.382;2022-10-28T08:26:04;17.90;99.90
30037;DHT22;36325;51.512;-0.382;2022-10-28T08:28:32;17.90;99.90
30037;DHT22;36325;51.512;-0.382;2022-10-28T08:31:04;17.90;99.90
30037;DHT22;36325;51.512;-0.382;2022-10-28T08:33:36;17.90;99.90
30037;DHT22;36325;51.512;-0.382;2022-10-28T08:36:05;18.00;99.90
30037;DHT22;36325;51.512;-0.382;2022-10-28T08:38:33;18.00;99.90
30037;DHT22;36325;51.512;-0.382;2022-10-28T08:49:15;17.80;99.90
30037;DHT22;36325;51.512;-0.382;2022-10-28T08:54:25;17.80;99.90
30037;DHT22;36325;51.512;-0.382;2022-10-28T08:56:56;17.80;99.90
30037;DHT22;36325;51.512;-0.382;2022-10-28T08:59:32;17.80;99.90
30037;DHT22;36325;51.512;-0.382;2022-10-28T09:02:17;17.90;99.90
30037;DHT22;36325;51.512;-0.382;2022-10-28T09:04:46;17.90;99.90
30037;DHT22;36325;51.512;-0.382;2022-10-28T09:07:19;18.00;99.90
30037;DHT22;36325;51.512;-0.382;2022-10-28T09:09:48;18.00;99.90
30037;DHT22;36325;51.512;-0.382;2022-10-28T09:17:54;18.30;99.90
30037;DHT22;36325;51.512;-0.382;2022-10-28T09:23:26;18.40;99.90
30037;DHT22;36325;51.512;-0.382;2022-10-28T09:34:56;18.70;99.90
30037;DHT22;36325;51.512;-0.382;2022-10-28T09:37:34;18.80;99.90
30037;DHT22;36325;51.512;-0.382;2022-10-28T09:40:23;18.70;99.90
30037;DHT22;36325;51.512;-0.382;2022-10-28T09:45:48;19.00;99.90
30037;DHT22;36325;51.512;-0.382;2022-10-28T09:48:30;19.10;99.90
30037;DHT22;36325;51.512;-0.382;2022-10-28T09:50:58;19.10;99.90
30037;DHT22;36325;51.512;-0.382;2022-10-28T09:53:58;19.10;99.90
30037;DHT22;36325;51.512;-0.382;2022-10-28T09:56:27;19.20;99.90
30037;DHT22;36325;51.512;-0.382;2022-10-28T09:58:58;19.20;99.90
30037;DHT22;36325;51.512;-0.382;2022-10-28T10:01:32;19.30;99.90
30037;DHT22;36325;51.512;-0.382;2022-10-28T10:04:00;19.40;99.90
30037;DHT22;36325;51.512;-0.382;2022-10-28T10:06:33;19.70;99.90
30037;DHT22;36325;51.512;-0.382;2022-10-28T10:09:01;19.90;99.90
30037;DHT22;36325;51.512;-0.382;2022-10-28T10:11:36;20.00;99.90
30037;DHT22;36325;51.512;-0.382;2022-10-28T10:14:09;19.80;99.90
30037;DHT22;36325;51.512;-0.382;2022-10-28T10:16:47;19.70;99.90
30037;DHT22;36325;51.512;-0.382;2022-10-28T10:19:15;19.50;99.90
30037;DHT22;36325;51.512;-0.382;2022-10-28T10:21:50;19.30;99.90
30037;DHT22;36325;51.512;-0.382;2022-10-28T10:24:33;19.10;99.90
30037;DHT22;36325;51.512;-0.382;2022-10-28T10:27:11;19.00;99.90
30037;DHT22;36325;51.512;-0.382;2022-10-28T10:29:44;19.00;99.90
30037;DHT22;36325;51.512;-0.382;2022-10-28T10:35:30;19.20;99.90
30037;DHT22;36325;51.512;-0.382;2022-10-28T10:37:34;19.20;99.90
30037;DHT22;36325;51.512;-0.382;2022-10-28T10:42:41;19.20;99.90
30037;DHT22;36325;51.512;-0.382;2022-10-28T10:47:41;19.10;99.90
30037;DHT22;36325;51.512;-0.382;2022-10-28T10:52:50;19.20;99.90
30037;DHT22;36325;51.512;-0.382;2022-10-28T10:57:55;19.10;99.90
30037;DHT22;36325;51.512;-0.382;2022-10-28T11:00:29;19.50;99.90
30037;DHT22;36325;51.512;-0.382;2022-10-28T11:02:58;19.00;99.90
30037;DHT22;36325;51.512;-0.382;2022-10-28T11:05:27;19.00;99.90
30037;DHT22;36325;51.512;-0.382;2022-10-28T11:07:59;19.10;99.90
30037;DHT22;36325;51.512;-0.382;2022-10-28T11:10:32;19.30;99.90
30037;DHT22;36325;51.512;-0.382;2022-10-28T11:13:24;19.40;99.90
30037;DHT22;36325;51.512;-0.382;2022-10-28T11:16:15;19.40;99.90
30037;DHT22;36325;51.512;-0.382;2022-10-28T11:18:46;19.40;99.90
30037;DHT22;36325;51.512;-0.382;2022-10-28T11:28:26;19.10;99.90
30037;DHT22;36325;51.512;-0.382;2022-10-28T11:33:16;19.00;99.90
30037;DHT22;36325;51.512;-0.382;2022-10-28T11:39:56;19.10;99.90
30037;DHT22;36325;51.512;-0.382;2022-10-28T11:45:33;20.60;99.90
30037;DHT22;36325;51.512;-0.382;2022-10-28T11:57:06;22.60;99.90
30037;DHT22;36325;51.512;-0.382;2022-10-28T12:02:38;23.00;99.90
30037;DHT22;36325;51.512;-0.382;2022-10-28T12:14:30;23.80;99.90
30037;DHT22;36325;51.512;-0.382;2022-10-28T12:17:21;24.60;99.90
30037;DHT22;36325;51.512;-0.382;2022-10-28T12:19:58;24.60;99.90
30037;DHT22;36325;51.512;-0.382;2022-10-28T12:22:32;24.90;99.90
30037;DHT22;36325;51.512;-0.382;2022-10-28T12:25:07;25.20;99.90
30037;DHT22;36325;51.512;-0.382;2022-10-28T12:27:42;25.90;99.90
30037;DHT22;36325;51.512;-0.382;2022-10-28T12:30:14;26.20;99.90
30037;DHT22;36325;51.512;-0.382;2022-10-28T12:32:44;25.70;99.90
30037;DHT22;36325;51.512;-0.382;2022-10-28T12:35:18;24.90;99.90
30037;DHT22;36325;51.512;-0.382;2022-10-28T12:40:38;23.70;99.90
30037;DHT22;36325;51.512;-0.382;2022-10-28T12:43:42;23.10;99.90
30037;DHT22;36325;51.512;-0.382;2022-10-28T12:49:09;22.70;99.90
30037;DHT22;36325;51.512;-0.382;2022-10-28T12:51:39;23.40;99.90
30037;DHT22;36325;51.512;-0.382;2022-10-28T12:54:20;24.60;99.90
30037;DHT22;36325;51.512;-0.382;2022-10-28T12:57:15;24.70;99.90
30037;DHT22;36325;51.512;-0.382;2022-10-28T12:59:57;24.60;99.90
30037;DHT22;36325;51.512;-0.382;2022-10-28T13:02:34;24.80;99.90
30037;DHT22;36325;51.512;-0.382;2022-10-28T13:05:04;24.30;99.90
30037;DHT22;36325;51.512;-0.382;2022-10-28T13:07:50;24.30;99.90
30037;DHT22;36325;51.512;-0.382;2022-10-28T13:22:25;23.70;99.90
30037;DHT22;36325;51.512;-0.382;2022-10-28T13:27:28;23.80;99.90
30037;DHT22;36325;51.512;-0.382;2022-10-28T13:29:58;24.00;99.90
30037;DHT22;36325;51.512;-0.382;2022-10-28T13:32:35;24.20;99.90
30037;DHT22;36325;51.512;-0.382;2022-10-28T13:37:45;24.90;99.90
30037;DHT22;36325;51.512;-0.382;2022-10-28T13:43:20;24.50;99.90
30037;DHT22;36325;51.512;-0.382;2022-10-28T13:46:07;24.30;99.90
30037;DHT22;36325;51.512;-0.382;2022-10-28T13:48:44;24.10;99.90
30037;DHT22;36325;51.512;-0.382;2022-10-28T13:56:24;25.20;99.90
30037;DHT22;36325;51.512;-0.382;2022-10-28T13:59:02;25.20;99.90
30037;DHT22;36325;51.512;-0.382;2022-10-28T14:07:15;26.60;99.90
30037;DHT22;36325;51.512;-0.382;2022-10-28T14:09:43;26.80;99.90
30037;DHT22;36325;51.512;-0.382;2022-10-28T14:12:15;26.80;99.90
30037;DHT22;36325;51.512;-0.382;2022-10-28T14:17:37;31.30;99.90
30037;DHT22;36325;51.512;-0.382;2022-10-28T14:20:29;28.20;99.90
30037;DHT22;36325;51.512;-0.382;2022-10-28T14:22:55;28.60;99.90
30037;DHT22;36325;51.512;-0.382;2022-10-28T14:36:21;29.10;99.90
30037;DHT22;36325;51.512;-0.382;2022-10-28T14:47:39;29.20;99.90
30037;DHT22;36325;51.512;-0.382;2022-10-28T14:50:23;29.10;99.90
30037;DHT22;36325;51.512;-0.382;2022-10-28T14:52:53;29.20;99.90
30037;DHT22;36325;51.512;-0.382;2022-10-28T14:55:31;29.10;99.90
30037;DHT22;36325;51.512;-0.382;2022-10-28T14:58:21;28.50;99.90
30037;DHT22;36325;51.512;-0.382;2022-10-28T15:03:27;28.20;99.90
30037;DHT22;36325;51.512;-0.382;2022-10-28T15:05:55;27.80;99.90
30037;DHT22;36325;51.512;-0.382;2022-10-28T15:08:23;27.90;99.90
30037;DHT22;36325;51.512;-0.382;2022-10-28T15:10:50;27.80;99.90
30037;DHT22;36325;51.512;-0.382;2022-10-28T15:13:25;27.80;99.90
30037;DHT22;36325;51.512;-0.382;2022-10-28T15:15:53;27.80;99.90
30037;DHT22;36325;51.512;-0.382;2022-10-28T15:18:26;27.80;99.90
30037;DHT22;36325;51.512;-0.382;2022-10-28T15:21:11;27.80;99.90
30037;DHT22;36325;51.512;-0.382;2022-10-28T15:23:40;27.80;99.90
30037;DHT22;36325;51.512;-0.382;2022-10-28T15:26:15;27.60;99.90
30037;DHT22;36325;51.512;-0.382;2022-10-28T15:28:51;27.70;99.90
30037;DHT22;36325;51.512;-0.382;2022-10-28T15:31:28;27.80;99.90
30037;DHT22;36325;51.512;-0.382;2022-10-28T15:34:02;27.90;99.90
30037;DHT22;36325;51.512;-0.382;2022-10-28T15:36:58;27.70;99.90
30037;DHT22;36325;51.512;-0.382;2022-10-28T15:39:36;27.50;99.90
30037;DHT22;36325;51.512;-0.382;2022-10-28T15:42:43;27.40;99.90
30037;DHT22;36325;51.512;-0.382;2022-10-28T15:45:28;27.30;99.90
30037;DHT22;36325;51.512;-0.382;2022-10-28T15:48:11;26.90;99.90
30037;DHT22;36325;51.512;-0.382;2022-10-28T15:51:14;26.40;99.90
30037;DHT22;36325;51.512;-0.382;2022-10-28T15:54:17;26.30;99.90
30037;DHT22;36325;51.512;-0.382;2022-10-28T15:57:23;25.90;99.90
30037;DHT22;36325;51.512;-0.382;2022-10-28T16:08:21;24.80;99.90
30037;DHT22;36325;51.512;-0.382;2022-10-28T16:10:59;24.50;99.90
30037;DHT22;36325;51.512;-0.382;2022-10-28T16:13:37;24.20;99.90
30037;DHT22;36325;51.512;-0.382;2022-10-28T16:16:27;23.90;99.90
30037;DHT22;36325;51.512;-0.382;2022-10-28T16:19:09;23.50;99.90
30037;DHT22;36325;51.512;-0.382;2022-10-28T16:21:44;23.30;99.90
30037;DHT22;36325;51.512;-0.382;2022-10-28T16:24:19;22.90;99.90
30037;DHT22;36325;51.512;-0.382;2022-10-28T16:27:07;21.20;99.90
30037;DHT22;36325;51.512;-0.382;2022-10-28T16:29:45;21.70;99.90
30037;DHT22;36325;51.512;-0.382;2022-10-28T16:32:40;20.90;99.90
30037;DHT22;36325;51.512;-0.382;2022-10-28T16:35:17;20.20;99.90
30037;DHT22;36325;51.512;-0.382;2022-10-28T16:37:58;19.60;99.90
30037;DHT22;36325;51.512;-0.382;2022-10-28T16:40:33;18.70;99.90
30037;DHT22;36325;51.512;-0.382;2022-10-28T16:43:22;18.70;99.90
30037;DHT22;36325;51.512;-0.382;2022-10-28T16:45:59;18.30;99.90
30037;DHT22;36325;51.512;-0.382;2022-10-28T16:48:32;18.00;99.90
30037;DHT22;36325;51.512;-0.382;2022-10-28T16:51:11;17.80;99.90
30037;DHT22;36325;51.512;-0.382;2022-10-28T16:53:44;17.50;99.90
30037;DHT22;36325;51.512;-0.382;2022-10-28T16:56:16;17.30;99.90
30037;DHT22;36325;51.512;-0.382;2022-10-28T16:58:44;17.10;99.90
30037;DHT22;36325;51.512;-0.382;2022-10-28T17:01:18;17.00;99.90
30037;DHT22;36325;51.512;-0.382;2022-10-28T17:03:57;16.90;99.90
30037;DHT22;36325;51.512;-0.382;2022-10-28T17:06:32;16.70;99.90
30037;DHT22;36325;51.512;-0.382;2022-10-28T17:09:00;16.70;99.90
30037;DHT22;36325;51.512;-0.382;2022-10-28T17:11:29;16.50;99.90
30037;DHT22;36325;51.512;-0.382;2022-10-28T17:14:02;16.50;99.90
30037;DHT22;36325;51.512;-0.382;2022-10-28T17:16:29;16.40;99.90
30037;DHT22;36325;51.512;-0.382;2022-10-28T17:18:57;16.40;99.90
30037;DHT22;36325;51.512;-0.382;2022-10-28T17:21:25;16.30;99.90
30037;DHT22;36325;51.512;-0.382;2022-10-28T17:23:52;16.20;99.90
30037;DHT22;36325;51.512;-0.382;2022-10-28T17:26:20;16.10;99.90
30037;DHT22;36325;51.512;-0.382;2022-10-28T17:28:51;15.90;99.90
30037;DHT22;36325;51.512;-0.382;2022-10-28T17:31:18;15.90;99.90
30037;DHT22;36325;51.512;-0.382;2022-10-28T17:33:52;15.90;99.90
30037;DHT22;36325;51.512;-0.382;2022-10-28T17:36:19;15.80;99.90
30037;DHT22;36325;51.512;-0.382;2022-10-28T17:38:46;15.70;99.90
30037;DHT22;36325;51.512;-0.382;2022-10-28T17:41:15;15.50;99.90
30037;DHT22;36325;51.512;-0.382;2022-10-28T17:43:42;15.50;99.90
30037;DHT22;36325;51.512;-0.382;2022-10-28T17:46:09;15.40;99.90
30037;DHT22;36325;51.512;-0.382;2022-10-28T17:48:37;15.40;99.90
30037;DHT22;36325;51.512;-0.382;2022-10-28T17:51:06;15.30;99.90
30037;DHT22;36325;51.512;-0.382;2022-10-28T17:53:33;15.30;99.90
30037;DHT22;36325;51.512;-0.382;2022-10-28T17:56:03;15.20;99.90
30037;DHT22;36325;51.512;-0.382;2022-10-28T17:58:31;15.20;99.90
30037;DHT22;36325;51.512;-0.382;2022-10-28T18:01:06;15.20;99.90
30037;DHT22;36325;51.512;-0.382;2022-10-28T18:03:35;15.20;99.90
30037;DHT22;36325;51.512;-0.382;2022-10-28T18:06:09;15.10;99.90
30037;DHT22;36325;51.512;-0.382;2022-10-28T18:08:39;15.10;99.90
30037;DHT22;36325;51.512;-0.382;2022-10-28T18:11:08;15.00;99.90
30037;DHT22;36325;51.512;-0.382;2022-10-28T18:13:37;15.00;99.90
30037;DHT22;36325;51.512;-0.382;2022-10-28T18:16:13;15.00;99.90
30037;DHT22;36325;51.512;-0.382;2022-10-28T18:18:41;14.90;99.90
30037;DHT22;36325;51.512;-0.382;2022-10-28T18:21:10;14.90;99.90
30037;DHT22;36325;51.512;-0.382;2022-10-28T18:23:38;14.80;99.90
30037;DHT22;36325;51.512;-0.382;2022-10-28T18:26:10;14.80;99.90
30037;DHT22;36325;51.512;-0.382;2022-10-28T18:28:40;14.80;99.90
30037;DHT22;36325;51.512;-0.382;2022-10-28T18:31:18;14.70;99.90
30037;DHT22;36325;51.512;-0.382;2022-10-28T18:33:46;14.70;99.90
30037;DHT22;36325;51.512;-0.382;2022-10-28T18:36:21;14.60;99.90
30037;DHT22;36325;51.512;-0.382;2022-10-28T18:38:50;14.60;99.90
30037;DHT22;36325;51.512;-0.382;2022-10-28T18:41:22;14.50;99.90
30037;DHT22;36325;51.512;-0.382;2022-10-28T18:44:01;14.40;99.90
30037;DHT22;36325;51.512;-0.382;2022-10-28T18:46:34;14.40;99.90
30037;DHT22;36325;51.512;-0.382;2022-10-28T18:49:03;14.30;99.90
30037;DHT22;36325;51.512;-0.382;2022-10-28T18:51:33;14.30;99.90
30037;DHT22;36325;51.512;-0.382;2022-10-28T18:54:01;14.30;99.90
30037;DHT22;36325;51.512;-0.382;2022-10-28T18:56:30;14.20;99.90
30037;DHT22;36325;51.512;-0.382;2022-10-28T18:58:57;14.20;99.90
30037;DHT22;36325;51.512;-0.382;2022-10-28T19:01:27;14.20;99.90
30037;DHT22;36325;51.512;-0.382;2022-10-28T19:04:00;14.10;99.90
30037;DHT22;36325;51.512;-0.382;2022-10-28T19:06:29;14.10;99.90